sensor_id;sensor_type;location;lat;lon;timestamp;pressure;altitude;pressure_sealevel;temperature;humidity
38880;BME280;25887;30.194;-97.880;2023-02-04T00:00:39;100155.97;;;11.41;57.81
38880;BME280;25887;30.194;-97.880;2023-02-04T00:03:06;100154.22;;;11.40;57.83
38880;BME280;25887;30.194;-97.880;2023-02-04T00:05:32;100153.34;;;11.40;57.80
38880;BME280;25887;30.194;-97.880;2023-02-04T00:07:58;100151.63;;;11.39;57.88
38880;BME280;25887;30.194;-97.880;2023-02-04T00:10:23;100151.66;;;11.40;57.74
38880;BME280;25887;30.194;-97.880;2023-02-04T00:12:49;100156.78;;;11.40;57.95
38880;BME280;25887;30.194;-97.880;2023-02-04T00:15:15;100156.78;;;11.40;57.66
38880;BME280;25887;30.194;-97.880;2023-02-04T00:17:41;100154.22;;;11.40;57.89
38880;BME280;25887;30.194;-97.880;2023-02-04T00:20:07;100149.94;;;11.41;57.66
38880;BME280;25887;30.194;-97.880;2023-02-04T00:22:33;100151.63;;;11.39;57.59
38880;BME280;25887;30.194;-97.880;2023-02-04T00:24:58;100150.78;;;11.40;57.72
38880;BME280;25887;30.194;-97.880;2023-02-04T00:27:40;100156.75;;;11.39;57.93
38880;BME280;25887;30.194;-97.880;2023-02-04T00:30:06;100149.00;;;11.37;57.86
38880;BME280;25887;30.194;-97.880;2023-02-04T00:32:32;100144.72;;;11.38;57.75
38880;BME280;25887;30.194;-97.880;2023-02-04T00:35:08;100143.00;;;11.37;57.75
38880;BME280;25887;30.194;-97.880;2023-02-04T00:37:34;100148.13;;;11.37;57.56
38880;BME280;25887;30.194;-97.880;2023-02-04T00:40:11;100152.41;;;11.36;57.87
38880;BME280;25887;30.194;-97.880;2023-02-04T00:42:37;100147.22;;;11.35;57.65
38880;BME280;25887;30.194;-97.880;2023-02-04T00:45:02;100147.19;;;11.33;57.79
38880;BME280;25887;30.194;-97.880;2023-02-04T00:47:41;100139.41;;;11.32;57.79
38880;BME280;25887;30.194;-97.880;2023-02-04T00:50:07;100144.56;;;11.32;57.76
38880;BME280;25887;30.194;-97.880;2023-02-04T00:52:33;100152.31;;;11.33;57.64
38880;BME280;25887;30.194;-97.880;2023-02-04T00:54:58;100142.03;;;11.33;57.81
38880;BME280;25887;30.194;-97.880;2023-02-04T00:57:24;100141.16;;;11.33;57.61
38880;BME280;25887;30.194;-97.880;2023-02-04T00:59:50;100141.16;;;11.33;57.70
38880;BME280;25887;30.194;-97.880;2023-02-04T01:02:16;100146.31;;;11.33;57.61
38880;BME280;25887;30.194;-97.880;2023-02-04T01:04:42;100148.00;;;11.32;57.64
38880;BME280;25887;30.194;-97.880;2023-02-04T01:07:07;100150.59;;;11.32;57.56
38880;BME280;25887;30.194;-97.880;2023-02-04T01:09:33;100144.56;;;11.32;57.62
38880;BME280;25887;30.194;-97.880;2023-02-04T01:11:59;100139.41;;;11.32;57.69
38880;BME280;25887;30.194;-97.880;2023-02-04T01:14:25;100147.06;;;11.29;57.77
38880;BME280;25887;30.194;-97.880;2023-02-04T01:16:51;100141.94;;;11.29;57.78
38880;BME280;25887;30.194;-97.880;2023-02-04T01:19:17;100140.97;;;11.25;57.52
38880;BME280;25887;30.194;-97.880;2023-02-04T01:21:43;100142.66;;;11.25;57.93
38880;BME280;25887;30.194;-97.880;2023-02-04T01:24:18;100140.94;;;11.24;57.75
38880;BME280;25887;30.194;-97.880;2023-02-04T01:29:29;100138.31;;;11.22;57.77
38880;BME280;25887;30.194;-97.880;2023-02-04T01:31:54;100138.31;;;11.22;57.94
38880;BME280;25887;30.194;-97.880;2023-02-04T01:34:20;100140.91;;;11.22;57.89
38880;BME280;25887;30.194;-97.880;2023-02-04T01:36:55;100137.47;;;11.22;57.63
38880;BME280;25887;30.194;-97.880;2023-02-04T01:39:21;100134.03;;;11.21;57.94
38880;BME280;25887;30.194;-97.880;2023-02-04T01:41:47;100133.16;;;11.21;57.97
38880;BME280;25887;30.194;-97.880;2023-02-04T01:44:13;100133.16;;;11.21;57.97
38880;BME280;25887;30.194;-97.880;2023-02-04T01:46:39;100134.88;;;11.22;57.79
38880;BME280;25887;30.194;-97.880;2023-02-04T01:49:04;100127.16;;;11.22;57.72
38880;BME280;25887;30.194;-97.880;2023-02-04T01:51:31;100128.91;;;11.23;57.96
38880;BME280;25887;30.194;-97.880;2023-02-04T01:54:12;100124.63;;;11.23;57.80
38880;BME280;25887;30.194;-97.880;2023-02-04T01:56:38;100125.44;;;11.21;57.98
38880;BME280;25887;30.194;-97.880;2023-02-04T01:59:09;100131.44;;;11.21;58.00
38880;BME280;25887;30.194;-97.880;2023-02-04T02:01:38;100127.94;;;11.19;57.93
38880;BME280;25887;30.194;-97.880;2023-02-04T02:04:06;100133.94;;;11.20;57.76
38880;BME280;25887;30.194;-97.880;2023-02-04T02:06:54;100133.94;;;11.20;57.90
38880;BME280;25887;30.194;-97.880;2023-02-04T02:09:23;100134.81;;;11.20;57.76
38880;BME280;25887;30.194;-97.880;2023-02-04T02:11:49;100138.28;;;11.21;57.68
38880;BME280;25887;30.194;-97.880;2023-02-04T02:14:15;100141.75;;;11.21;57.83
38880;BME280;25887;30.194;-97.880;2023-02-04T02:17:10;100133.16;;;11.21;57.87
38880;BME280;25887;30.194;-97.880;2023-02-04T02:19:35;100131.38;;;11.20;57.85
38880;BME280;25887;30.194;-97.880;2023-02-04T02:22:47;100138.28;;;11.21;57.74
38880;BME280;25887;30.194;-97.880;2023-02-04T02:25:16;100140.88;;;11.21;57.87
38880;BME280;25887;30.194;-97.880;2023-02-04T02:27:42;100144.31;;;11.21;57.76
38880;BME280;25887;30.194;-97.880;2023-02-04T02:30:09;100148.59;;;11.21;57.72
38880;BME280;25887;30.194;-97.880;2023-02-04T02:32:35;100147.69;;;11.20;57.69
38880;BME280;25887;30.194;-97.880;2023-02-04T02:35:02;100140.03;;;11.22;57.67
38880;BME280;25887;30.194;-97.880;2023-02-04T02:37:28;100135.72;;;11.21;57.65
38880;BME280;25887;30.194;-97.880;2023-02-04T02:39:54;100133.94;;;11.20;nan
38880;BME280;25887;30.194;-97.880;2023-02-04T02:42:20;100133.94;;;11.20;57.86
38880;BME280;25887;30.194;-97.880;2023-02-04T02:44:46;100128.88;;;11.21;57.93
38880;BME280;25887;30.194;-97.880;2023-02-04T02:47:31;100129.63;;;11.19;57.84
38880;BME280;25887;30.194;-97.880;2023-02-04T02:49:57;100139.94;;;11.19;57.78
38880;BME280;25887;30.194;-97.880;2023-02-04T02:52:23;100128.75;;;11.16;57.78
38880;BME280;25887;30.194;-97.880;2023-02-04T02:54:49;100126.16;;;11.16;57.98
38880;BME280;25887;30.194;-97.880;2023-02-04T02:57:19;100127.00;;;11.15;58.04
38880;BME280;25887;30.194;-97.880;2023-02-04T02:59:46;100132.16;;;11.15;58.04
38880;BME280;25887;30.194;-97.880;2023-02-04T03:02:12;100133.84;;;11.15;57.88
38880;BME280;25887;30.194;-97.880;2023-02-04T03:04:40;100125.28;;;11.14;58.10
38880;BME280;25887;30.194;-97.880;2023-02-04T03:07:08;100128.75;;;11.16;57.94
38880;BME280;25887;30.194;-97.880;2023-02-04T03:09:34;100120.13;;;11.14;57.98
38880;BME280;25887;30.194;-97.880;2023-02-04T03:12:01;100121.00;;;11.15;58.12
38880;BME280;25887;30.194;-97.880;2023-02-04T03:14:29;100119.28;;;11.15;57.94
38880;BME280;25887;30.194;-97.880;2023-02-04T03:16:55;100115.84;;;11.15;57.87
38880;BME280;25887;30.194;-97.880;2023-02-04T03:19:30;100120.97;;;11.13;57.90
38880;BME280;25887;30.194;-97.880;2023-02-04T03:24:58;100113.16;;;11.10;57.81
38880;BME280;25887;30.194;-97.880;2023-02-04T03:27:23;100115.72;;;11.10;57.96
38880;BME280;25887;30.194;-97.880;2023-02-04T03:30:07;100115.69;;;11.09;57.85
38880;BME280;25887;30.194;-97.880;2023-02-04T03:32:33;100116.56;;;11.09;57.97
38880;BME280;25887;30.194;-97.880;2023-02-04T03:35:08;100108.84;;;11.09;57.86
38880;BME280;25887;30.194;-97.880;2023-02-04T03:37:52;100107.13;;;11.10;57.82
38880;BME280;25887;30.194;-97.880;2023-02-04T03:40:18;100111.41;;;11.09;57.99
38880;BME280;25887;30.194;-97.880;2023-02-04T03:42:44;100106.25;;;11.09;57.95
38880;BME280;25887;30.194;-97.880;2023-02-04T03:45:10;100108.00;;;11.10;58.06
38880;BME280;25887;30.194;-97.880;2023-02-04T03:47:36;100110.56;;;11.10;57.89
38880;BME280;25887;30.194;-97.880;2023-02-04T03:50:02;100111.41;;;11.09;57.99
38880;BME280;25887;30.194;-97.880;2023-02-04T03:52:28;100112.25;;;11.08;58.03
38880;BME280;25887;30.194;-97.880;2023-02-04T03:54:54;100113.09;;;11.07;57.81
38880;BME280;25887;30.194;-97.880;2023-02-04T03:57:20;100112.19;;;11.05;58.01
38880;BME280;25887;30.194;-97.880;2023-02-04T03:59:46;100113.81;;;11.03;57.93
38880;BME280;25887;30.194;-97.880;2023-02-04T04:02:12;100112.97;;;11.04;57.90
38880;BME280;25887;30.194;-97.880;2023-02-04T04:05:09;100121.53;;;11.03;58.04
38880;BME280;25887;30.194;-97.880;2023-02-04T04:07:35;100115.53;;;11.03;57.91
38880;BME280;25887;30.194;-97.880;2023-02-04T04:10:00;100114.66;;;11.02;57.90
38880;BME280;25887;30.194;-97.880;2023-02-04T04:12:26;100105.19;;;11.01;57.95
38880;BME280;25887;30.194;-97.880;2023-02-04T04:14:52;100104.34;;;11.01;57.96
38880;BME280;25887;30.194;-97.880;2023-02-04T04:17:18;100114.59;;;10.99;58.08
38880;BME280;25887;30.194;-97.880;2023-02-04T04:19:43;100112.84;;;10.98;57.85
38880;BME280;25887;30.194;-97.880;2023-02-04T04:22:09;100105.97;;;10.97;58.08
38880;BME280;25887;30.194;-97.880;2023-02-04T04:24:35;100110.22;;;10.97;57.82
38880;BME280;25887;30.194;-97.880;2023-02-04T04:27:15;100099.88;;;10.95;58.10
38880;BME280;25887;30.194;-97.880;2023-02-04T04:29:41;100100.75;;;10.96;57.86
38880;BME280;25887;30.194;-97.880;2023-02-04T04:32:25;100101.59;;;10.95;57.88
38880;BME280;25887;30.194;-97.880;2023-02-04T04:34:55;100110.13;;;10.94;57.96
38880;BME280;25887;30.194;-97.880;2023-02-04T04:37:21;100092.09;;;10.92;57.89
38880;BME280;25887;30.194;-97.880;2023-02-04T04:39:47;100109.22;;;10.90;58.04
38880;BME280;25887;30.194;-97.880;2023-02-04T04:42:13;100118.63;;;10.90;57.92
38880;BME280;25887;30.194;-97.880;2023-02-04T04:44:59;100121.13;;;10.88;57.95
38880;BME280;25887;30.194;-97.880;2023-02-04T04:47:25;100116.78;;;10.85;57.98
38880;BME280;25887;30.194;-97.880;2023-02-04T04:49:50;100116.78;;;10.85;58.00
38880;BME280;25887;30.194;-97.880;2023-02-04T04:55:07;100117.59;;;10.83;58.05
38880;BME280;25887;30.194;-97.880;2023-02-04T04:57:33;100108.19;;;10.85;58.19
38880;BME280;25887;30.194;-97.880;2023-02-04T04:59:59;100104.78;;;10.86;58.15
38880;BME280;25887;30.194;-97.880;2023-02-04T05:02:25;100108.25;;;10.86;58.06
38880;BME280;25887;30.194;-97.880;2023-02-04T05:04:51;100101.41;;;10.87;58.01
38880;BME280;25887;30.194;-97.880;2023-02-04T05:07:23;100109.09;;;10.87;57.89
38880;BME280;25887;30.194;-97.880;2023-02-04T05:09:49;100105.63;;;10.85;58.05
38880;BME280;25887;30.194;-97.880;2023-02-04T05:12:15;100106.50;;;10.85;58.13
38880;BME280;25887;30.194;-97.880;2023-02-04T05:14:41;100108.19;;;10.85;58.00
38880;BME280;25887;30.194;-97.880;2023-02-04T05:17:07;100100.50;;;10.85;58.00
38880;BME280;25887;30.194;-97.880;2023-02-04T05:19:33;100105.63;;;10.85;58.01
38880;BME280;25887;30.194;-97.880;2023-02-04T05:21:59;100105.59;;;10.83;58.02
38880;BME280;25887;30.194;-97.880;2023-02-04T05:24:26;100100.44;;;10.83;58.03
38880;BME280;25887;30.194;-97.880;2023-02-04T05:26:52;100095.28;;;10.82;58.02
38880;BME280;25887;30.194;-97.880;2023-02-04T05:29:18;100098.66;;;10.81;58.04
38880;BME280;25887;30.194;-97.880;2023-02-04T05:31:43;100093.50;;;10.81;58.11
38880;BME280;25887;30.194;-97.880;2023-02-04T05:34:12;100090.13;;;10.82;58.14
38880;BME280;25887;30.194;-97.880;2023-02-04T05:36:38;100089.31;;;10.83;58.17
38880;BME280;25887;30.194;-97.880;2023-02-04T05:39:12;100087.59;;;10.83;58.09
38880;BME280;25887;30.194;-97.880;2023-02-04T05:41:41;100094.44;;;10.83;58.20
38880;BME280;25887;30.194;-97.880;2023-02-04T05:44:08;100102.16;;;10.83;58.12
38880;BME280;25887;30.194;-97.880;2023-02-04T05:46:34;100103.91;;;10.84;57.96
38880;BME280;25887;30.194;-97.880;2023-02-04T05:49:01;100103.06;;;10.85;57.97
38880;BME280;25887;30.194;-97.880;2023-02-04T05:51:27;100093.66;;;10.85;58.03
38880;BME280;25887;30.194;-97.880;2023-02-04T05:53:52;100089.34;;;10.84;57.94
38880;BME280;25887;30.194;-97.880;2023-02-04T05:56:18;100085.03;;;10.83;58.08
38880;BME280;25887;30.194;-97.880;2023-02-04T05:58:44;100092.78;;;10.85;58.14
38880;BME280;25887;30.194;-97.880;2023-02-04T06:01:10;100087.63;;;10.85;58.06
38880;BME280;25887;30.194;-97.880;2023-02-04T06:03:36;100084.22;;;10.86;58.08
38880;BME280;25887;30.194;-97.880;2023-02-04T06:06:02;100088.53;;;10.87;57.85
38880;BME280;25887;30.194;-97.880;2023-02-04T06:08:27;100084.25;;;10.87;58.21
38880;BME280;25887;30.194;-97.880;2023-02-04T06:10:53;100095.41;;;10.88;58.09
38880;BME280;25887;30.194;-97.880;2023-02-04T06:13:28;100085.13;;;10.88;58.01
38880;BME280;25887;30.194;-97.880;2023-02-04T06:15:53;100086.88;;;10.89;58.01
38880;BME280;25887;30.194;-97.880;2023-02-04T06:18:19;100085.13;;;10.88;58.07
38880;BME280;25887;30.194;-97.880;2023-02-04T06:20:45;100075.69;;;10.87;58.01
38880;BME280;25887;30.194;-97.880;2023-02-04T06:23:11;100082.56;;;10.88;57.89
38880;BME280;25887;30.194;-97.880;2023-02-04T06:25:37;100077.34;;;10.85;58.04
38880;BME280;25887;30.194;-97.880;2023-02-04T06:28:04;100078.25;;;10.87;58.09
38880;BME280;25887;30.194;-97.880;2023-02-04T06:30:48;100086.78;;;10.86;58.14
38880;BME280;25887;30.194;-97.880;2023-02-04T06:33:14;100088.47;;;10.84;58.00
38880;BME280;25887;30.194;-97.880;2023-02-04T06:38:36;100074.66;;;10.80;58.02
38880;BME280;25887;30.194;-97.880;2023-02-04T06:41:02;100076.34;;;10.80;58.04
38880;BME280;25887;30.194;-97.880;2023-02-04T06:43:27;100072.06;;;10.80;58.17
38880;BME280;25887;30.194;-97.880;2023-02-04T06:45:53;100077.22;;;10.80;58.06
38880;BME280;25887;30.194;-97.880;2023-02-04T06:48:19;100077.22;;;10.80;57.87
38880;BME280;25887;30.194;-97.880;2023-02-04T06:50:45;100076.34;;;10.80;58.05
38880;BME280;25887;30.194;-97.880;2023-02-04T06:53:11;100074.63;;;10.79;58.12
38880;BME280;25887;30.194;-97.880;2023-02-04T06:55:37;100064.31;;;10.79;58.17
38880;BME280;25887;30.194;-97.880;2023-02-04T06:58:02;100066.94;;;10.80;57.96
38880;BME280;25887;30.194;-97.880;2023-02-04T07:00:30;100063.50;;;10.80;58.27
38880;BME280;25887;30.194;-97.880;2023-02-04T07:02:56;100065.19;;;10.79;58.09
38880;BME280;25887;30.194;-97.880;2023-02-04T07:05:23;100077.22;;;10.80;58.21
38880;BME280;25887;30.194;-97.880;2023-02-04T07:07:48;100073.78;;;10.80;58.04
38880;BME280;25887;30.194;-97.880;2023-02-04T07:10:31;100071.19;;;10.80;58.10
38880;BME280;25887;30.194;-97.880;2023-02-04T07:12:57;100077.22;;;10.80;58.20
38880;BME280;25887;30.194;-97.880;2023-02-04T07:15:36;100073.78;;;10.80;58.19
38880;BME280;25887;30.194;-97.880;2023-02-04T07:18:03;100073.78;;;10.80;58.34
38880;BME280;25887;30.194;-97.880;2023-02-04T07:20:30;100072.06;;;10.80;58.16
38880;BME280;25887;30.194;-97.880;2023-02-04T07:22:55;100072.06;;;10.80;58.19
38880;BME280;25887;30.194;-97.880;2023-02-04T07:25:21;100067.81;;;10.81;57.99
38880;BME280;25887;30.194;-97.880;2023-02-04T07:27:47;100062.63;;;10.79;58.12
38880;BME280;25887;30.194;-97.880;2023-02-04T07:30:13;100070.38;;;10.81;58.13
38880;BME280;25887;30.194;-97.880;2023-02-04T07:32:48;100060.91;;;10.80;58.25
38880;BME280;25887;30.194;-97.880;2023-02-04T07:35:14;100058.38;;;10.81;58.16
38880;BME280;25887;30.194;-97.880;2023-02-04T07:37:40;100044.66;;;10.81;58.03
38880;BME280;25887;30.194;-97.880;2023-02-04T07:40:06;100035.22;;;10.80;58.13
38880;BME280;25887;30.194;-97.880;2023-02-04T07:42:33;100031.00;;;10.82;58.26
38880;BME280;25887;30.194;-97.880;2023-02-04T07:44:59;100030.06;;;10.80;58.17
38880;BME280;25887;30.194;-97.880;2023-02-04T07:47:26;100023.19;;;10.79;58.07
38880;BME280;25887;30.194;-97.880;2023-02-04T07:49:52;100018.06;;;10.79;58.11
38880;BME280;25887;30.194;-97.880;2023-02-04T07:52:21;100013.75;;;10.78;58.10
38880;BME280;25887;30.194;-97.880;2023-02-04T07:54:47;100019.72;;;10.77;58.05
38880;BME280;25887;30.194;-97.880;2023-02-04T07:57:13;100018.00;;;10.76;57.95
38880;BME280;25887;30.194;-97.880;2023-02-04T07:59:39;100020.53;;;10.74;58.23
38880;BME280;25887;30.194;-97.880;2023-02-04T08:02:05;100014.47;;;10.74;58.05
38880;BME280;25887;30.194;-97.880;2023-02-04T08:04:31;100005.88;;;10.72;58.09
38880;BME280;25887;30.194;-97.880;2023-02-04T08:06:57;100006.72;;;10.71;58.21
38880;BME280;25887;30.194;-97.880;2023-02-04T08:09:29;100000.69;;;10.70;58.10
38880;BME280;25887;30.194;-97.880;2023-02-04T08:11:55;99997.22;;;10.68;57.96
38880;BME280;25887;30.194;-97.880;2023-02-04T08:14:36;99999.78;;;10.67;58.13
38880;BME280;25887;30.194;-97.880;2023-02-04T08:17:04;99995.44;;;10.66;58.05
38880;BME280;25887;30.194;-97.880;2023-02-04T08:19:30;99997.09;;;10.64;57.94
38880;BME280;25887;30.194;-97.880;2023-02-04T08:21:56;99999.59;;;10.60;58.31
38880;BME280;25887;30.194;-97.880;2023-02-04T08:24:22;100003.00;;;10.59;58.16
38880;BME280;25887;30.194;-97.880;2023-02-04T08:27:00;100000.38;;;10.58;58.13
38880;BME280;25887;30.194;-97.880;2023-02-04T08:29:26;99994.34;;;10.56;57.84
38880;BME280;25887;30.194;-97.880;2023-02-04T08:31:52;99996.88;;;10.54;58.15
38880;BME280;25887;30.194;-97.880;2023-02-04T08:34:18;99981.38;;;10.51;58.11
38880;BME280;25887;30.194;-97.880;2023-02-04T08:36:44;99978.72;;;10.48;58.00
38880;BME280;25887;30.194;-97.880;2023-02-04T08:39:10;99969.28;;;10.47;57.95
38880;BME280;25887;30.194;-97.880;2023-02-04T08:41:36;99965.75;;;10.44;58.02
38880;BME280;25887;30.194;-97.880;2023-02-04T08:44:02;99969.09;;;10.41;57.99
38880;BME280;25887;30.194;-97.880;2023-02-04T08:46:28;99960.50;;;10.39;57.87
38880;BME280;25887;30.194;-97.880;2023-02-04T08:48:54;99968.13;;;10.36;57.78
38880;BME280;25887;30.194;-97.880;2023-02-04T08:51:20;99962.91;;;10.33;58.31
38880;BME280;25887;30.194;-97.880;2023-02-04T08:53:46;99963.72;;;10.32;58.06
38880;BME280;25887;30.194;-97.880;2023-02-04T08:56:11;99961.09;;;10.29;57.99
38880;BME280;25887;30.194;-97.880;2023-02-04T08:58:41;99959.25;;;10.25;58.00
38880;BME280;25887;30.194;-97.880;2023-02-04T09:01:07;99950.66;;;10.23;58.02
38880;BME280;25887;30.194;-97.880;2023-02-04T09:03:35;99955.69;;;10.20;58.20
38880;BME280;25887;30.194;-97.880;2023-02-04T09:06:01;99959.88;;;10.18;58.21
38880;BME280;25887;30.194;-97.880;2023-02-04T09:08:59;99954.69;;;10.15;58.08
38880;BME280;25887;30.194;-97.880;2023-02-04T09:11:26;99960.53;;;10.11;58.26
38880;BME280;25887;30.194;-97.880;2023-02-04T09:13:52;99966.47;;;10.08;58.28
38880;BME280;25887;30.194;-97.880;2023-02-04T09:16:19;99958.72;;;10.05;58.08
38880;BME280;25887;30.194;-97.880;2023-02-04T09:18:45;99956.91;;;10.02;58.13
38880;BME280;25887;30.194;-97.880;2023-02-04T09:21:11;99955.16;;;10.01;58.14
38880;BME280;25887;30.194;-97.880;2023-02-04T09:23:37;99949.13;;;9.99;57.80
38880;BME280;25887;30.194;-97.880;2023-02-04T09:26:03;99955.06;;;9.97;57.90
38880;BME280;25887;30.194;-97.880;2023-02-04T09:28:31;99950.69;;;9.94;57.98
38880;BME280;25887;30.194;-97.880;2023-02-04T09:31:05;99954.00;;;9.90;58.39
38880;BME280;25887;30.194;-97.880;2023-02-04T09:33:32;99951.34;;;9.87;58.27
38880;BME280;25887;30.194;-97.880;2023-02-04T09:35:58;99945.28;;;9.84;58.51
38880;BME280;25887;30.194;-97.880;2023-02-04T09:38:24;99940.13;;;9.84;58.13
38880;BME280;25887;30.194;-97.880;2023-02-04T09:40:53;99941.81;;;9.82;57.96
38880;BME280;25887;30.194;-97.880;2023-02-04T09:43:24;99945.13;;;9.79;58.31
38880;BME280;25887;30.194;-97.880;2023-02-04T09:45:51;99938.22;;;9.76;58.11
38880;BME280;25887;30.194;-97.880;2023-02-04T09:48:19;99935.50;;;9.72;58.22
38880;BME280;25887;30.194;-97.880;2023-02-04T09:50:46;99930.38;;;9.72;58.32
38880;BME280;25887;30.194;-97.880;2023-02-04T09:53:14;99928.66;;;9.71;58.52
38880;BME280;25887;30.194;-97.880;2023-02-04T09:55:44;99916.66;;;9.70;58.21
38880;BME280;25887;30.194;-97.880;2023-02-04T09:58:18;99914.03;;;9.68;58.16
38880;BME280;25887;30.194;-97.880;2023-02-04T10:00:45;99913.16;;;9.68;58.29
38880;BME280;25887;30.194;-97.880;2023-02-04T10:03:31;99905.38;;;9.65;58.48
38880;BME280;25887;30.194;-97.880;2023-02-04T10:05:59;99916.44;;;9.62;58.56
38880;BME280;25887;30.194;-97.880;2023-02-04T10:08:27;99914.63;;;9.58;58.43
38880;BME280;25887;30.194;-97.880;2023-02-04T10:10:55;99899.13;;;9.55;58.10
38880;BME280;25887;30.194;-97.880;2023-02-04T10:13:35;99903.38;;;9.55;58.63
38880;BME280;25887;30.194;-97.880;2023-02-04T10:16:02;99899.00;;;9.51;58.46
38880;BME280;25887;30.194;-97.880;2023-02-04T10:18:31;99901.50;;;9.49;58.69
38880;BME280;25887;30.194;-97.880;2023-02-04T10:24:01;99904.78;;;9.43;58.41
38880;BME280;25887;30.194;-97.880;2023-02-04T10:26:29;99897.84;;;9.41;57.93
38880;BME280;25887;30.194;-97.880;2023-02-04T10:29:05;99892.69;;;9.39;58.43
38880;BME280;25887;30.194;-97.880;2023-02-04T10:31:32;99882.38;;;9.38;58.59
38880;BME280;25887;30.194;-97.880;2023-02-04T10:34:01;99872.84;;;9.34;58.40
38880;BME280;25887;30.194;-97.880;2023-02-04T10:36:27;99871.91;;;9.30;58.63
38880;BME280;25887;30.194;-97.880;2023-02-04T10:39:08;99871.91;;;9.30;58.38
38880;BME280;25887;30.194;-97.880;2023-02-04T10:41:38;99873.56;;;9.28;58.48
38880;BME280;25887;30.194;-97.880;2023-02-04T10:44:10;99859.84;;;9.26;57.95
38880;BME280;25887;30.194;-97.880;2023-02-04T10:46:36;99860.69;;;9.27;58.39
38880;BME280;25887;30.194;-97.880;2023-02-04T10:49:20;99869.19;;;9.26;58.49
38880;BME280;25887;30.194;-97.880;2023-02-04T10:51:47;99864.88;;;9.25;58.33
38880;BME280;25887;30.194;-97.880;2023-02-04T10:54:13;99863.13;;;9.22;57.92
38880;BME280;25887;30.194;-97.880;2023-02-04T10:56:55;99862.16;;;9.18;58.29
38880;BME280;25887;30.194;-97.880;2023-02-04T10:59:22;99873.19;;;9.16;58.08
38880;BME280;25887;30.194;-97.880;2023-02-04T11:01:51;99874.88;;;9.15;58.27
38880;BME280;25887;30.194;-97.880;2023-02-04T11:04:17;99874.84;;;9.14;58.36
38880;BME280;25887;30.194;-97.880;2023-02-04T11:06:43;99868.75;;;9.10;58.17
38880;BME280;25887;30.194;-97.880;2023-02-04T11:09:29;99872.91;;;9.07;58.24
38880;BME280;25887;30.194;-97.880;2023-02-04T11:14:54;99875.34;;;9.02;58.38
38880;BME280;25887;30.194;-97.880;2023-02-04T11:17:35;99869.22;;;8.97;58.69
38880;BME280;25887;30.194;-97.880;2023-02-04T11:20:29;99867.41;;;8.94;58.62
38880;BME280;25887;30.194;-97.880;2023-02-04T11:22:55;99865.59;;;8.90;57.66
38880;BME280;25887;30.194;-97.880;2023-02-04T11:25:34;99861.28;;;8.89;58.41
38880;BME280;25887;30.194;-97.880;2023-02-04T11:28:11;99869.75;;;8.87;58.16
38880;BME280;25887;30.194;-97.880;2023-02-04T11:30:37;99863.75;;;8.86;57.76
38880;BME280;25887;30.194;-97.880;2023-02-04T11:33:04;99867.13;;;8.85;57.98
38880;BME280;25887;30.194;-97.880;2023-02-04T11:35:30;99868.75;;;8.82;57.79
38880;BME280;25887;30.194;-97.880;2023-02-04T11:37:56;99877.31;;;8.82;57.60
38880;BME280;25887;30.194;-97.880;2023-02-04T11:40:30;99861.88;;;8.81;58.71
38880;BME280;25887;30.194;-97.880;2023-02-04T11:43:08;99860.09;;;8.78;58.28
38880;BME280;25887;30.194;-97.880;2023-02-04T11:45:35;99868.59;;;8.77;57.92
38880;BME280;25887;30.194;-97.880;2023-02-04T11:48:19;99855.78;;;8.77;58.72
38880;BME280;25887;30.194;-97.880;2023-02-04T11:50:58;99858.31;;;8.76;58.42
38880;BME280;25887;30.194;-97.880;2023-02-04T11:53:28;99857.44;;;8.75;58.40
38880;BME280;25887;30.194;-97.880;2023-02-04T11:55:59;99858.25;;;8.74;58.58
38880;BME280;25887;30.194;-97.880;2023-02-04T11:58:25;99859.09;;;8.73;58.41
38880;BME280;25887;30.194;-97.880;2023-02-04T12:00:53;99858.22;;;8.73;58.52
38880;BME280;25887;30.194;-97.880;2023-02-04T12:03:29;99859.91;;;8.72;58.27
38880;BME280;25887;30.194;-97.880;2023-02-04T12:05:55;99857.34;;;8.72;57.83
38880;BME280;25887;30.194;-97.880;2023-02-04T12:10:49;99861.53;;;8.70;58.00
38880;BME280;25887;30.194;-97.880;2023-02-04T12:13:16;99862.38;;;8.69;58.76
38880;BME280;25887;30.194;-97.880;2023-02-04T12:15:51;99856.34;;;8.67;58.22
38880;BME280;25887;30.194;-97.880;2023-02-04T12:18:16;99863.16;;;8.67;58.37
38880;BME280;25887;30.194;-97.880;2023-02-04T12:20:42;99858.03;;;8.67;58.12
38880;BME280;25887;30.194;-97.880;2023-02-04T12:23:08;99866.56;;;8.67;58.59
38880;BME280;25887;30.194;-97.880;2023-02-04T12:25:34;99864.06;;;8.69;58.55
38880;BME280;25887;30.194;-97.880;2023-02-04T12:28:05;99867.50;;;8.69;58.76
38880;BME280;25887;30.194;-97.880;2023-02-04T12:30:31;99857.25;;;8.69;58.50
38880;BME280;25887;30.194;-97.880;2023-02-04T12:32:57;99862.38;;;8.69;57.85
38880;BME280;25887;30.194;-97.880;2023-02-04T12:35:23;99864.94;;;8.69;58.29
38880;BME280;25887;30.194;-97.880;2023-02-04T12:37:49;99862.38;;;8.69;58.07
38880;BME280;25887;30.194;-97.880;2023-02-04T12:40:15;99863.19;;;8.68;58.63
38880;BME280;25887;30.194;-97.880;2023-02-04T12:42:42;99868.28;;;8.67;58.71
38880;BME280;25887;30.194;-97.880;2023-02-04T12:45:08;99864.84;;;8.66;58.72
38880;BME280;25887;30.194;-97.880;2023-02-04T12:47:34;99862.28;;;8.66;58.68
38880;BME280;25887;30.194;-97.880;2023-02-04T12:50:00;99859.69;;;8.64;58.31
38880;BME280;25887;30.194;-97.880;2023-02-04T12:52:50;99860.44;;;8.62;58.30
38880;BME280;25887;30.194;-97.880;2023-02-04T12:55:17;99867.19;;;8.60;58.15
38880;BME280;25887;30.194;-97.880;2023-02-04T12:57:44;99866.38;;;8.61;59.08
38880;BME280;25887;30.194;-97.880;2023-02-04T13:00:12;99862.91;;;8.59;58.95
38880;BME280;25887;30.194;-97.880;2023-02-04T13:03:01;99858.56;;;8.56;58.20